sensor_id;sensor_type;location;lat;lon;timestamp;P1;durP1;ratioP1;P2;durP2;ratioP2
43646;SDS011;56152;49.996;18.980;2023-04-15T00:01:51;9.55;;;3.10;;
43646;SDS011;56152;49.996;18.980;2023-04-15T00:06:54;20.38;;;7.93;;
43646;SDS011;56152;49.996;18.980;2023-04-15T00:11:58;6.45;;;3.38;;
43646;SDS011;56152;49.996;18.980;2023-04-15T00:17:01;6.78;;;2.80;;
43646;SDS011;56152;49.996;18.980;2023-04-15T00:22:05;8.20;;;3.40;;
43646;SDS011;56152;49.996;18.980;2023-04-15T00:27:11;4.15;;;2.45;;
43646;SDS011;56152;49.996;18.980;2023-04-15T00:32:14;8.77;;;4.38;;
43646;SDS011;56152;49.996;18.980;2023-04-15T00:37:17;19.90;;;11.68;;
43646;SDS011;56152;49.996;18.980;2023-04-15T00:42:21;26.45;;;15.00;;
43646;SDS011;56152;49.996;18.980;2023-04-15T00:47:24;19.67;;;9.88;;
43646;SDS011;56152;49.996;18.980;2023-04-15T00:52:29;12.88;;;6.45;;
43646;SDS011;56152;49.996;18.980;2023-04-15T00:57:33;8.07;;;4.88;;
43646;SDS011;56152;49.996;18.980;2023-04-15T01:02:36;7.72;;;4.75;;
43646;SDS011;56152;49.996;18.980;2023-04-15T01:07:39;8.13;;;4.93;;
43646;SDS011;56152;49.996;18.980;2023-04-15T01:12:43;18.30;;;7.88;;
43646;SDS011;56152;49.996;18.980;2023-04-15T01:17:48;12.80;;;5.97;;
43646;SDS011;56152;49.996;18.980;2023-04-15T01:22:50;11.15;;;6.13;;
43646;SDS011;56152;49.996;18.980;2023-04-15T01:27:53;10.55;;;6.65;;
43646;SDS011;56152;49.996;18.980;2023-04-15T01:32:55;13.43;;;8.38;;
43646;SDS011;56152;49.996;18.980;2023-04-15T01:37:59;12.50;;;8.00;;
43646;SDS011;56152;49.996;18.980;2023-04-15T01:43:08;10.20;;;5.95;;
43646;SDS011;56152;49.996;18.980;2023-04-15T01:48:10;12.48;;;6.03;;
43646;SDS011;56152;49.996;18.980;2023-04-15T01:53:12;7.82;;;4.05;;
43646;SDS011;56152;49.996;18.980;2023-04-15T01:58:16;7.03;;;4.43;;
43646;SDS011;56152;49.996;18.980;2023-04-15T02:03:21;10.27;;;4.78;;
43646;SDS011;56152;49.996;18.980;2023-04-15T02:08:24;10.48;;;5.55;;
43646;SDS011;56152;49.996;18.980;2023-04-15T02:13:29;6.65;;;4.57;;
43646;SDS011;56152;49.996;18.980;2023-04-15T02:18:31;14.00;;;7.25;;
43646;SDS011;56152;49.996;18.980;2023-04-15T02:23:33;16.73;;;7.95;;
43646;SDS011;56152;49.996;18.980;2023-04-15T02:28:38;18.30;;;9.23;;
43646;SDS011;56152;49.996;18.980;2023-04-15T02:33:40;22.20;;;11.32;;
43646;SDS011;56152;49.996;18.980;2023-04-15T02:38:42;25.80;;;13.05;;
43646;SDS011;56152;49.996;18.980;2023-04-15T02:43:46;24.88;;;12.15;;
43646;SDS011;56152;49.996;18.980;2023-04-15T02:48:48;24.13;;;11.68;;
43646;SDS011;56152;49.996;18.980;2023-04-15T02:53:50;19.90;;;9.00;;
43646;SDS011;56152;49.996;18.980;2023-04-15T02:58:57;21.98;;;11.77;;
43646;SDS011;56152;49.996;18.980;2023-04-15T03:03:58;20.73;;;10.32;;
43646;SDS011;56152;49.996;18.980;2023-04-15T03:09:00;19.33;;;8.73;;
43646;SDS011;56152;49.996;18.980;2023-04-15T03:14:05;19.38;;;9.20;;
43646;SDS011;56152;49.996;18.980;2023-04-15T03:19:07;22.73;;;10.20;;
43646;SDS011;56152;49.996;18.980;2023-04-15T03:24:09;25.08;;;14.02;;
43646;SDS011;56152;49.996;18.980;2023-04-15T03:29:13;23.08;;;12.35;;
43646;SDS011;56152;49.996;18.980;2023-04-15T03:34:15;32.17;;;14.07;;
43646;SDS011;56152;49.996;18.980;2023-04-15T03:39:17;16.80;;;9.80;;
43646;SDS011;56152;49.996;18.980;2023-04-15T03:44:26;14.82;;;8.95;;
43646;SDS011;56152;49.996;18.980;2023-04-15T03:49:28;19.30;;;10.30;;
43646;SDS011;56152;49.996;18.980;2023-04-15T03:54:30;28.48;;;12.75;;
43646;SDS011;56152;49.996;18.980;2023-04-15T03:59:37;29.73;;;16.10;;
43646;SDS011;56152;49.996;18.980;2023-04-15T04:04:38;24.10;;;13.68;;
43646;SDS011;56152;49.996;18.980;2023-04-15T04:09:40;23.83;;;13.63;;
43646;SDS011;56152;49.996;18.980;2023-04-15T04:14:43;18.40;;;8.20;;
43646;SDS011;56152;49.996;18.980;2023-04-15T04:19:46;23.00;;;12.82;;
43646;SDS011;56152;49.996;18.980;2023-04-15T04:24:48;25.08;;;11.63;;
43646;SDS011;56152;49.996;18.980;2023-04-15T04:29:52;20.35;;;12.10;;
43646;SDS011;56152;49.996;18.980;2023-04-15T04:34:54;38.45;;;21.10;;
43646;SDS011;56152;49.996;18.980;2023-04-15T04:39:57;31.30;;;20.50;;
43646;SDS011;56152;49.996;18.980;2023-04-15T04:45:00;21.48;;;10.27;;
43646;SDS011;56152;49.996;18.980;2023-04-15T04:50:05;18.10;;;11.40;;
43646;SDS011;56152;49.996;18.980;2023-04-15T04:55:08;15.68;;;8.63;;
43646;SDS011;56152;49.996;18.980;2023-04-15T05:00:13;24.85;;;15.38;;
43646;SDS011;56152;49.996;18.980;2023-04-15T05:05:15;24.92;;;13.55;;
43646;SDS011;56152;49.996;18.980;2023-04-15T05:10:17;30.92;;;17.10;;
43646;SDS011;56152;49.996;18.980;2023-04-15T05:15:23;82.45;;;46.47;;
43646;SDS011;56152;49.996;18.980;2023-04-15T05:20:26;35.20;;;17.45;;
43646;SDS011;56152;49.996;18.980;2023-04-15T05:25:28;32.85;;;18.88;;
43646;SDS011;56152;49.996;18.980;2023-04-15T05:30:31;26.70;;;15.77;;
43646;SDS011;56152;49.996;18.980;2023-04-15T05:35:33;18.77;;;10.63;;
43646;SDS011;56152;49.996;18.980;2023-04-15T05:40:35;14.02;;;8.73;;
43646;SDS011;56152;49.996;18.980;2023-04-15T05:45:41;14.68;;;7.90;;
43646;SDS011;56152;49.996;18.980;2023-04-15T05:50:43;15.05;;;8.60;;
43646;SDS011;56152;49.996;18.980;2023-04-15T05:55:46;23.27;;;11.15;;
43646;SDS011;56152;49.996;18.980;2023-04-15T06:00:51;25.25;;;12.70;;
43646;SDS011;56152;49.996;18.980;2023-04-15T06:05:54;8.63;;;5.57;;
43646;SDS011;56152;49.996;18.980;2023-04-15T06:10:58;10.15;;;5.22;;
43646;SDS011;56152;49.996;18.980;2023-04-15T06:16:03;6.60;;;3.88;;
43646;SDS011;56152;49.996;18.980;2023-04-15T06:21:05;16.75;;;10.43;;
43646;SDS011;56152;49.996;18.980;2023-04-15T06:26:08;4.50;;;3.20;;
43646;SDS011;56152;49.996;18.980;2023-04-15T06:31:12;3.78;;;2.90;;
43646;SDS011;56152;49.996;18.980;2023-04-15T06:36:15;5.20;;;3.17;;
43646;SDS011;56152;49.996;18.980;2023-04-15T06:41:18;5.57;;;2.83;;
43646;SDS011;56152;49.996;18.980;2023-04-15T06:46:22;4.65;;;2.90;;
43646;SDS011;56152;49.996;18.980;2023-04-15T06:51:24;5.75;;;2.78;;
43646;SDS011;56152;49.996;18.980;2023-04-15T06:56:27;3.38;;;2.10;;
43646;SDS011;56152;49.996;18.980;2023-04-15T07:01:31;5.85;;;2.75;;
43646;SDS011;56152;49.996;18.980;2023-04-15T07:06:33;4.22;;;2.50;;
43646;SDS011;56152;49.996;18.980;2023-04-15T07:11:35;4.68;;;2.28;;
43646;SDS011;56152;49.996;18.980;2023-04-15T07:16:39;4.97;;;2.75;;
43646;SDS011;56152;49.996;18.980;2023-04-15T07:21:41;3.03;;;2.42;;
43646;SDS011;56152;49.996;18.980;2023-04-15T07:26:45;6.18;;;2.25;;
43646;SDS011;56152;49.996;18.980;2023-04-15T07:31:51;3.05;;;1.90;;
43646;SDS011;56152;49.996;18.980;2023-04-15T07:36:55;3.45;;;1.98;;
43646;SDS011;56152;49.996;18.980;2023-04-15T07:41:57;2.20;;;1.67;;
43646;SDS011;56152;49.996;18.980;2023-04-15T07:47:01;3.65;;;1.95;;
43646;SDS011;56152;49.996;18.980;2023-04-15T07:52:03;2.42;;;1.50;;
43646;SDS011;56152;49.996;18.980;2023-04-15T07:57:05;1.63;;;1.38;;
43646;SDS011;56152;49.996;18.980;2023-04-15T08:02:09;1.92;;;1.60;;
43646;SDS011;56152;49.996;18.980;2023-04-15T08:07:12;3.67;;;1.58;;
43646;SDS011;56152;49.996;18.980;2023-04-15T08:12:15;1.20;;;1.10;;
43646;SDS011;56152;49.996;18.980;2023-04-15T08:17:23;1.85;;;1.20;;
43646;SDS011;56152;49.996;18.980;2023-04-15T08:22:25;1.67;;;1.30;;
43646;SDS011;56152;49.996;18.980;2023-04-15T08:27:28;3.03;;;1.42;;
43646;SDS011;56152;49.996;18.980;2023-04-15T08:32:32;1.13;;;1.02;;
43646;SDS011;56152;49.996;18.980;2023-04-15T08:37:33;2.05;;;1.30;;
43646;SDS011;56152;49.996;18.980;2023-04-15T08:42:36;1.73;;;1.02;;
43646;SDS011;56152;49.996;18.980;2023-04-15T08:47:44;2.83;;;1.80;;
43646;SDS011;56152;49.996;18.980;2023-04-15T08:52:50;2.53;;;1.67;;
43646;SDS011;56152;49.996;18.980;2023-04-15T08:57:54;2.17;;;1.58;;
43646;SDS011;56152;49.996;18.980;2023-04-15T09:02:58;2.63;;;1.70;;
43646;SDS011;56152;49.996;18.980;2023-04-15T09:08:01;4.53;;;2.30;;
43646;SDS011;56152;49.996;18.980;2023-04-15T09:13:03;4.13;;;2.13;;
43646;SDS011;56152;49.996;18.980;2023-04-15T09:18:06;4.75;;;2.47;;
43646;SDS011;56152;49.996;18.980;2023-04-15T09:23:11;2.72;;;2.20;;
43646;SDS011;56152;49.996;18.980;2023-04-15T09:28:14;3.72;;;2.15;;
43646;SDS011;56152;49.996;18.980;2023-04-15T09:33:28;6.00;;;2.22;;
43646;SDS011;56152;49.996;18.980;2023-04-15T09:38:30;6.57;;;3.08;;
43646;SDS011;56152;49.996;18.980;2023-04-15T09:43:36;5.60;;;2.28;;
43646;SDS011;56152;49.996;18.980;2023-04-15T09:48:41;3.63;;;2.15;;
43646;SDS011;56152;49.996;18.980;2023-04-15T09:53:44;5.68;;;2.35;;
43646;SDS011;56152;49.996;18.980;2023-04-15T09:58:54;3.20;;;2.20;;
43646;SDS011;56152;49.996;18.980;2023-04-15T10:09:03;3.30;;;2.65;;
43646;SDS011;56152;49.996;18.980;2023-04-15T10:14:11;7.53;;;2.80;;
43646;SDS011;56152;49.996;18.980;2023-04-15T10:19:18;4.22;;;2.30;;
43646;SDS011;56152;49.996;18.980;2023-04-15T10:24:26;6.18;;;3.30;;
43646;SDS011;56152;49.996;18.980;2023-04-15T10:29:28;6.95;;;2.50;;
43646;SDS011;56152;49.996;18.980;2023-04-15T10:34:39;4.20;;;2.77;;
43646;SDS011;56152;49.996;18.980;2023-04-15T10:39:42;3.63;;;2.40;;
43646;SDS011;56152;49.996;18.980;2023-04-15T10:44:49;3.65;;;2.33;;
43646;SDS011;56152;49.996;18.980;2023-04-15T10:50:00;6.70;;;2.30;;
43646;SDS011;56152;49.996;18.980;2023-04-15T10:55:12;3.67;;;2.35;;
43646;SDS011;56152;49.996;18.980;2023-04-15T11:00:19;4.38;;;2.78;;
43646;SDS011;56152;49.996;18.980;2023-04-15T11:10:54;7.45;;;2.45;;
43646;SDS011;56152;49.996;18.980;2023-04-15T11:15:58;4.10;;;2.35;;
43646;SDS011;56152;49.996;18.980;2023-04-15T11:21:03;3.78;;;2.80;;
43646;SDS011;56152;49.996;18.980;2023-04-15T11:26:08;4.60;;;2.53;;
43646;SDS011;56152;49.996;18.980;2023-04-15T11:31:11;2.92;;;2.17;;
43646;SDS011;56152;49.996;18.980;2023-04-15T11:41:42;2.83;;;2.20;;
43646;SDS011;56152;49.996;18.980;2023-04-15T11:46:50;3.00;;;2.50;;
43646;SDS011;56152;49.996;18.980;2023-04-15T11:51:54;6.80;;;4.20;;
43646;SDS011;56152;49.996;18.980;2023-04-15T11:56:56;5.18;;;2.47;;
43646;SDS011;56152;49.996;18.980;2023-04-15T12:02:09;2.67;;;2.30;;
43646;SDS011;56152;49.996;18.980;2023-04-15T12:07:15;2.25;;;1.83;;
43646;SDS011;56152;49.996;18.980;2023-04-15T12:12:17;4.03;;;2.47;;
43646;SDS011;56152;49.996;18.980;2023-04-15T12:17:20;2.65;;;2.00;;
43646;SDS011;56152;49.996;18.980;2023-04-15T12:22:27;2.97;;;2.20;;
43646;SDS011;56152;49.996;18.980;2023-04-15T12:27:30;3.22;;;2.00;;
43646;SDS011;56152;49.996;18.980;2023-04-15T12:32:33;2.47;;;2.13;;
43646;SDS011;56152;49.996;18.980;2023-04-15T12:37:38;6.22;;;3.55;;
43646;SDS011;56152;49.996;18.980;2023-04-15T12:42:40;4.32;;;2.08;;
43646;SDS011;56152;49.996;18.980;2023-04-15T12:47:46;2.38;;;1.60;;
43646;SDS011;56152;49.996;18.980;2023-04-15T12:52:51;2.00;;;1.80;;
43646;SDS011;56152;49.996;18.980;2023-04-15T12:57:54;2.85;;;2.00;;
43646;SDS011;56152;49.996;18.980;2023-04-15T13:02:56;2.53;;;1.73;;
43646;SDS011;56152;49.996;18.980;2023-04-15T13:07:59;2.30;;;2.03;;
43646;SDS011;56152;49.996;18.980;2023-04-15T13:13:01;3.55;;;2.55;;
43646;SDS011;56152;49.996;18.980;2023-04-15T13:18:10;2.47;;;2.10;;
43646;SDS011;56152;49.996;18.980;2023-04-15T13:23:14;3.40;;;2.20;;
43646;SDS011;56152;49.996;18.980;2023-04-15T13:28:17;4.18;;;2.78;;
43646;SDS011;56152;49.996;18.980;2023-04-15T13:33:19;3.50;;;2.35;;
43646;SDS011;56152;49.996;18.980;2023-04-15T13:38:25;2.55;;;1.90;;
43646;SDS011;56152;49.996;18.980;2023-04-15T13:43:27;2.75;;;1.75;;
43646;SDS011;56152;49.996;18.980;2023-04-15T13:48:29;3.35;;;2.20;;
43646;SDS011;56152;49.996;18.980;2023-04-15T13:53:34;3.03;;;2.22;;
43646;SDS011;56152;49.996;18.980;2023-04-15T13:58:54;5.43;;;2.70;;
43646;SDS011;56152;49.996;18.980;2023-04-15T14:04:00;5.15;;;2.60;;
43646;SDS011;56152;49.996;18.980;2023-04-15T14:09:09;3.97;;;2.65;;
43646;SDS011;56152;49.996;18.980;2023-04-15T14:14:14;4.32;;;2.53;;
43646;SDS011;56152;49.996;18.980;2023-04-15T14:19:23;4.20;;;2.97;;
43646;SDS011;56152;49.996;18.980;2023-04-15T14:24:29;3.08;;;2.20;;
43646;SDS011;56152;49.996;18.980;2023-04-15T14:29:32;4.88;;;2.88;;
43646;SDS011;56152;49.996;18.980;2023-04-15T14:34:34;6.70;;;3.40;;
43646;SDS011;56152;49.996;18.980;2023-04-15T14:39:39;5.90;;;3.70;;
43646;SDS011;56152;49.996;18.980;2023-04-15T14:44:42;6.28;;;4.00;;
43646;SDS011;56152;49.996;18.980;2023-04-15T14:49:45;9.48;;;4.85;;
43646;SDS011;56152;49.996;18.980;2023-04-15T14:54:52;7.88;;;4.50;;
43646;SDS011;56152;49.996;18.980;2023-04-15T14:59:55;5.90;;;4.05;;
43646;SDS011;56152;49.996;18.980;2023-04-15T15:05:06;5.10;;;3.35;;
43646;SDS011;56152;49.996;18.980;2023-04-15T15:10:14;8.35;;;4.93;;
43646;SDS011;56152;49.996;18.980;2023-04-15T15:15:16;8.07;;;4.72;;
43646;SDS011;56152;49.996;18.980;2023-04-15T15:20:19;5.40;;;3.75;;
43646;SDS011;56152;49.996;18.980;2023-04-15T15:25:24;14.10;;;6.80;;
43646;SDS011;56152;49.996;18.980;2023-04-15T15:30:27;18.42;;;11.70;;
43646;SDS011;56152;49.996;18.980;2023-04-15T15:35:31;11.07;;;6.88;;
43646;SDS011;56152;49.996;18.980;2023-04-15T15:40:35;11.68;;;6.75;;
43646;SDS011;56152;49.996;18.980;2023-04-15T15:45:37;9.43;;;6.15;;
43646;SDS011;56152;49.996;18.980;2023-04-15T15:50:39;8.38;;;5.20;;
43646;SDS011;56152;49.996;18.980;2023-04-15T15:55:45;7.43;;;4.43;;
43646;SDS011;56152;49.996;18.980;2023-04-15T16:00:47;9.48;;;3.63;;
43646;SDS011;56152;49.996;18.980;2023-04-15T16:05:50;7.18;;;4.20;;
43646;SDS011;56152;49.996;18.980;2023-04-15T16:10:54;8.30;;;5.00;;
43646;SDS011;56152;49.996;18.980;2023-04-15T16:15:56;6.25;;;3.20;;
43646;SDS011;56152;49.996;18.980;2023-04-15T16:20:59;7.65;;;4.13;;
43646;SDS011;56152;49.996;18.980;2023-04-15T16:26:04;7.82;;;4.30;;
43646;SDS011;56152;49.996;18.980;2023-04-15T16:31:06;6.07;;;3.30;;
43646;SDS011;56152;49.996;18.980;2023-04-15T16:36:08;11.93;;;6.07;;
43646;SDS011;56152;49.996;18.980;2023-04-15T16:41:12;21.95;;;11.77;;
43646;SDS011;56152;49.996;18.980;2023-04-15T16:46:18;30.92;;;19.52;;
43646;SDS011;56152;49.996;18.980;2023-04-15T16:51:21;27.63;;;16.33;;
43646;SDS011;56152;49.996;18.980;2023-04-15T16:56:27;16.90;;;11.25;;
43646;SDS011;56152;49.996;18.980;2023-04-15T17:01:28;22.08;;;8.65;;
43646;SDS011;56152;49.996;18.980;2023-04-15T17:06:32;21.45;;;11.05;;
43646;SDS011;56152;49.996;18.980;2023-04-15T17:11:38;32.28;;;18.45;;
43646;SDS011;56152;49.996;18.980;2023-04-15T17:16:42;28.23;;;15.23;;
43646;SDS011;56152;49.996;18.980;2023-04-15T17:21:44;11.13;;;7.28;;
43646;SDS011;56152;49.996;18.980;2023-04-15T17:26:55;11.70;;;6.00;;
43646;SDS011;56152;49.996;18.980;2023-04-15T17:31:57;8.57;;;5.75;;
43646;SDS011;56152;49.996;18.980;2023-04-15T17:37:00;9.70;;;6.18;;
43646;SDS011;56152;49.996;18.980;2023-04-15T17:42:04;32.30;;;19.98;;
43646;SDS011;56152;49.996;18.980;2023-04-15T17:47:20;34.35;;;21.48;;
43646;SDS011;56152;49.996;18.980;2023-04-15T17:52:30;92.20;;;64.35;;
43646;SDS011;56152;49.996;18.980;2023-04-15T17:57:35;34.35;;;24.00;;
43646;SDS011;56152;49.996;18.980;2023-04-15T18:02:39;44.90;;;32.60;;
43646;SDS011;56152;49.996;18.980;2023-04-15T18:07:52;21.50;;;13.43;;
43646;SDS011;56152;49.996;18.980;2023-04-15T18:13:17;147.68;;;70.80;;
43646;SDS011;56152;49.996;18.980;2023-04-15T18:18:39;29.30;;;16.30;;
43646;SDS011;56152;49.996;18.980;2023-04-15T18:23:42;24.00;;;15.45;;
43646;SDS011;56152;49.996;18.980;2023-04-15T18:28:52;26.58;;;17.48;;
43646;SDS011;56152;49.996;18.980;2023-04-15T18:34:06;32.83;;;18.17;;
43646;SDS011;56152;49.996;18.980;2023-04-15T18:39:09;16.73;;;10.73;;
43646;SDS011;56152;49.996;18.980;2023-04-15T18:44:12;16.80;;;9.75;;
43646;SDS011;56152;49.996;18.980;2023-04-15T18:49:15;15.43;;;10.98;;
43646;SDS011;56152;49.996;18.980;2023-04-15T18:54:18;26.52;;;15.50;;
43646;SDS011;56152;49.996;18.980;2023-04-15T18:59:22;20.85;;;11.70;;
43646;SDS011;56152;49.996;18.980;2023-04-15T19:04:24;18.45;;;10.20;;
43646;SDS011;56152;49.996;18.980;2023-04-15T19:09:27;17.45;;;10.07;;
43646;SDS011;56152;49.996;18.980;2023-04-15T19:14:32;31.05;;;19.90;;
43646;SDS011;56152;49.996;18.980;2023-04-15T19:19:34;21.40;;;11.77;;
43646;SDS011;56152;49.996;18.980;2023-04-15T19:24:46;22.77;;;11.88;;
43646;SDS011;56152;49.996;18.980;2023-04-15T19:29:50;38.78;;;19.63;;
43646;SDS011;56152;49.996;18.980;2023-04-15T19:34:52;48.00;;;22.95;;
43646;SDS011;56152;49.996;18.980;2023-04-15T19:40:05;59.75;;;27.95;;
43646;SDS011;56152;49.996;18.980;2023-04-15T19:45:11;60.33;;;29.80;;
43646;SDS011;56152;49.996;18.980;2023-04-15T19:50:15;44.72;;;23.45;;
43646;SDS011;56152;49.996;18.980;2023-04-15T19:55:25;39.55;;;20.65;;
43646;SDS011;56152;49.996;18.980;2023-04-15T20:00:28;52.92;;;25.90;;
43646;SDS011;56152;49.996;18.980;2023-04-15T20:05:36;40.63;;;22.00;;
43646;SDS011;56152;49.996;18.980;2023-04-15T20:10:41;52.70;;;31.73;;
43646;SDS011;56152;49.996;18.980;2023-04-15T20:15:46;38.38;;;24.20;;
43646;SDS011;56152;49.996;18.980;2023-04-15T20:20:51;76.35;;;34.05;;
43646;SDS011;56152;49.996;18.980;2023-04-15T20:26:02;69.28;;;30.13;;
43646;SDS011;56152;49.996;18.980;2023-04-15T20:31:15;96.60;;;34.33;;
43646;SDS011;56152;49.996;18.980;2023-04-15T20:36:19;115.35;;;40.67;;
43646;SDS011;56152;49.996;18.980;2023-04-15T20:41:25;96.20;;;35.33;;
43646;SDS011;56152;49.996;18.980;2023-04-15T20:46:33;107.07;;;44.10;;
43646;SDS011;56152;49.996;18.980;2023-04-15T20:51:35;78.22;;;31.83;;
43646;SDS011;56152;49.996;18.980;2023-04-15T20:56:37;83.55;;;39.33;;
43646;SDS011;56152;49.996;18.980;2023-04-15T21:01:42;63.33;;;32.72;;
43646;SDS011;56152;49.996;18.980;2023-04-15T21:06:46;58.13;;;28.95;;
43646;SDS011;56152;49.996;18.980;2023-04-15T21:11:49;57.92;;;35.53;;
43646;SDS011;56152;49.996;18.980;2023-04-15T21:16:52;40.40;;;27.40;;
43646;SDS011;56152;49.996;18.980;2023-04-15T21:21:54;52.75;;;30.48;;
43646;SDS011;56152;49.996;18.980;2023-04-15T21:26:57;46.80;;;27.58;;
43646;SDS011;56152;49.996;18.980;2023-04-15T21:37:25;99.43;;;50.13;;
43646;SDS011;56152;49.996;18.980;2023-04-15T21:42:29;84.43;;;44.33;;
43646;SDS011;56152;49.996;18.980;2023-04-15T21:47:36;95.18;;;49.15;;
43646;SDS011;56152;49.996;18.980;2023-04-15T21:52:38;58.03;;;32.58;;
43646;SDS011;56152;49.996;18.980;2023-04-15T21:57:50;53.47;;;30.55;;
43646;SDS011;56152;49.996;18.980;2023-04-15T22:03:11;53.33;;;30.50;;
43646;SDS011;56152;49.996;18.980;2023-04-15T22:08:13;45.90;;;28.27;;
43646;SDS011;56152;49.996;18.980;2023-04-15T22:13:17;55.17;;;32.40;;
43646;SDS011;56152;49.996;18.980;2023-04-15T22:18:22;57.50;;;33.10;;
43646;SDS011;56152;49.996;18.980;2023-04-15T22:23:29;43.03;;;27.83;;
43646;SDS011;56152;49.996;18.980;2023-04-15T22:28:32;50.15;;;29.48;;
43646;SDS011;56152;49.996;18.980;2023-04-15T22:33:38;58.97;;;33.28;;
43646;SDS011;56152;49.996;18.980;2023-04-15T22:38:40;50.17;;;30.25;;
43646;SDS011;56152;49.996;18.980;2023-04-15T22:43:43;40.40;;;26.50;;
43646;SDS011;56152;49.996;18.980;2023-04-15T22:48:51;39.03;;;25.15;;
43646;SDS011;56152;49.996;18.980;2023-04-15T22:53:53;70.65;;;40.22;;
43646;SDS011;56152;49.996;18.980;2023-04-15T22:58:56;43.88;;;30.13;;
43646;SDS011;56152;49.996;18.980;2023-04-15T23:04:01;66.18;;;41.60;;
43646;SDS011;56152;49.996;18.980;2023-04-15T23:09:03;83.40;;;45.30;;
43646;SDS011;56152;49.996;18.980;2023-04-15T23:14:06;62.13;;;35.58;;
43646;SDS011;56152;49.996;18.980;2023-04-15T23:19:24;104.00;;;53.53;;
43646;SDS011;56152;49.996;18.980;2023-04-15T23:24:26;91.68;;;50.60;;
43646;SDS011;56152;49.996;18.980;2023-04-15T23:29:32;59.28;;;33.97;;
43646;SDS011;56152;49.996;18.980;2023-04-15T23:34:37;56.05;;;31.45;;
43646;SDS011;56152;49.996;18.980;2023-04-15T23:39:41;67.78;;;35.33;;
43646;SDS011;56152;49.996;18.980;2023-04-15T23:44:44;62.05;;;36.05;;
43646;SDS011;56152;49.996;18.980;2023-04-15T23:49:51;85.85;;;38.63;;
43646;SDS011;56152;49.996;18.980;2023-04-15T23:54:54;86.45;;;43.40;;
43646;SDS011;56152;49.996;18.980;2023-04-15T23:59:57;94.63;;;48.35;;
